createdAt,value
2018-12-16T00:00:43.979Z,20.23
2018-12-16T00:03:11.374Z,19.97
2018-12-16T00:05:38.828Z,20.23
2018-12-16T00:08:06.252Z,18.50
2018-12-16T00:10:33.728Z,19.93
2018-12-16T00:13:01.177Z,18.30
2018-12-16T00:15:28.585Z,18.37
2018-12-16T00:17:55.962Z,17.87
2018-12-16T00:20:23.368Z,18.77
2018-12-16T00:22:50.795Z,18.13
2018-12-16T00:25:18.360Z,17.40
2018-12-16T00:27:45.839Z,18.83
2018-12-16T00:30:13.288Z,18.47
2018-12-16T00:32:40.707Z,18.97
2018-12-16T00:35:08.320Z,18.30
2018-12-16T00:37:35.724Z,16.43
2018-12-16T00:40:03.343Z,18.07
2018-12-16T00:42:30.767Z,18.83
2018-12-16T00:44:58.143Z,17.60
2018-12-16T00:47:25.567Z,16.53
2018-12-16T00:49:53.083Z,15.80
2018-12-16T00:52:20.515Z,17.93
2018-12-16T00:54:47.951Z,16.37
2018-12-16T00:57:15.367Z,18.60
2018-12-16T00:59:42.775Z,14.97
2018-12-16T01:02:16.028Z,17.57
2018-12-16T01:04:43.547Z,16.83
2018-12-16T01:07:10.990Z,15.90
2018-12-16T01:09:38.401Z,15.63
2018-12-16T01:12:05.775Z,17.03
2018-12-16T01:14:33.199Z,17.00
2018-12-16T01:17:00.600Z,16.67
2018-12-16T01:19:28.022Z,15.63
2018-12-16T01:21:55.422Z,15.83
2018-12-16T01:24:22.826Z,15.83
2018-12-16T01:26:50.258Z,16.17
2018-12-16T01:29:17.662Z,15.47
2018-12-16T01:31:45.066Z,16.30
2018-12-16T01:34:12.567Z,16.93
2018-12-16T01:36:40.124Z,16.30
2018-12-16T01:39:07.528Z,16.63
2018-12-16T01:41:34.973Z,15.87
2018-12-16T01:44:02.970Z,15.93
2018-12-16T01:46:30.685Z,17.13
2018-12-16T01:48:58.087Z,15.43
2018-12-16T01:51:25.470Z,16.20
2018-12-16T01:53:52.886Z,16.17
2018-12-16T01:56:20.301Z,15.47
2018-12-16T01:58:47.693Z,14.57
2018-12-16T02:01:15.129Z,16.33
2018-12-16T02:03:42.561Z,14.33
2018-12-16T02:06:09.984Z,14.93
2018-12-16T02:08:37.431Z,14.97
2018-12-16T02:11:05.104Z,16.27
2018-12-16T02:13:32.472Z,14.40
2018-12-16T02:15:59.905Z,14.30
2018-12-16T02:18:27.337Z,15.07
2018-12-16T02:20:54.779Z,14.30
2018-12-16T02:23:22.163Z,15.17
2018-12-16T02:25:49.597Z,14.03
2018-12-16T02:28:16.979Z,14.57
2018-12-16T02:30:44.476Z,13.97
2018-12-16T02:33:12.011Z,14.17
2018-12-16T02:35:39.410Z,13.27
2018-12-16T02:38:06.796Z,13.57
2018-12-16T02:40:34.196Z,14.93
2018-12-16T02:43:01.623Z,13.73
2018-12-16T02:45:29.032Z,14.90
2018-12-16T02:47:56.460Z,14.37
2018-12-16T02:50:23.846Z,13.60
2018-12-16T02:52:51.272Z,14.20
2018-12-16T02:55:18.672Z,13.17
2018-12-16T02:57:46.057Z,14.50
2018-12-16T03:00:13.673Z,14.63
2018-12-16T03:02:41.047Z,13.13
2018-12-16T03:05:08.507Z,13.40
2018-12-16T03:07:35.990Z,13.87
2018-12-16T03:10:04.195Z,13.33
2018-12-16T03:12:31.625Z,13.53
2018-12-16T03:14:59.039Z,13.73
2018-12-16T03:20:00.597Z,14.13
2018-12-16T03:22:28.001Z,12.90
2018-12-16T03:24:55.424Z,14.50
2018-12-16T03:27:22.846Z,14.07
2018-12-16T03:29:50.224Z,13.80
2018-12-16T03:32:17.660Z,14.47
2018-12-16T03:34:45.045Z,15.17
2018-12-16T03:37:12.443Z,15.50
2018-12-16T03:39:39.820Z,14.03
2018-12-16T03:42:07.347Z,14.27
2018-12-16T03:44:34.761Z,15.47
2018-12-16T03:47:02.175Z,15.33
2018-12-16T03:49:29.673Z,16.80
2018-12-16T03:51:57.139Z,17.80
2018-12-16T03:54:24.500Z,16.53
2018-12-16T03:56:51.919Z,17.10
2018-12-16T03:59:19.736Z,17.43
2018-12-16T04:01:53.054Z,17.97
2018-12-16T04:04:20.422Z,16.13
2018-12-16T04:06:47.807Z,16.60
2018-12-16T04:09:15.236Z,17.07
2018-12-16T04:11:42.598Z,16.27
2018-12-16T04:14:10.055Z,17.47
2018-12-16T04:16:37.430Z,16.93
2018-12-16T04:19:04.958Z,16.10
2018-12-16T04:21:32.338Z,16.80
2018-12-16T04:23:59.768Z,14.97
2018-12-16T04:26:27.166Z,15.90
2018-12-16T04:28:54.532Z,15.80
2018-12-16T04:31:21.925Z,15.73
2018-12-16T04:33:49.293Z,15.73
2018-12-16T04:36:16.733Z,15.57
2018-12-16T04:38:44.136Z,14.80
2018-12-16T04:41:11.538Z,16.70
2018-12-16T04:43:38.938Z,17.27
2018-12-16T04:46:06.348Z,16.33
2018-12-16T04:48:33.770Z,16.50
2018-12-16T04:51:01.194Z,16.27
2018-12-16T04:53:35.135Z,16.23
2018-12-16T04:55:58.131Z,16.57
2018-12-16T04:58:25.531Z,16.20
2018-12-16T05:00:53.104Z,16.17
2018-12-16T05:03:20.521Z,16.43
2018-12-16T05:05:47.965Z,15.67
2018-12-16T05:08:15.536Z,15.30
2018-12-16T05:10:43.081Z,14.40
2018-12-16T05:13:10.488Z,14.83
2018-12-16T05:15:37.898Z,15.90
2018-12-16T05:18:05.286Z,16.67
2018-12-16T05:20:32.700Z,15.20
2018-12-16T05:23:00.132Z,14.13
2018-12-16T05:25:27.514Z,15.50
2018-12-16T05:27:54.932Z,15.33
2018-12-16T05:30:22.386Z,14.77
2018-12-16T05:32:49.796Z,14.23
2018-12-16T05:35:17.287Z,13.83
2018-12-16T05:37:44.708Z,14.70
2018-12-16T05:40:12.242Z,15.47
2018-12-16T05:42:39.711Z,13.50
2018-12-16T05:45:07.348Z,13.93
2018-12-16T05:47:34.778Z,14.70
2018-12-16T05:50:02.295Z,12.90
2018-12-16T05:52:29.715Z,12.73
2018-12-16T05:54:57.848Z,13.73
2018-12-16T05:57:25.360Z,13.27
2018-12-16T05:59:52.757Z,12.97
2018-12-16T06:02:20.199Z,11.43
2018-12-16T06:04:47.618Z,12.70
2018-12-16T06:07:15.025Z,11.23
2018-12-16T06:09:42.451Z,11.80
2018-12-16T06:12:09.881Z,12.20
2018-12-16T06:14:37.301Z,11.13
2018-12-16T06:17:04.713Z,11.20
2018-12-16T06:19:32.140Z,11.10
2018-12-16T06:21:59.577Z,11.47
2018-12-16T06:24:27.032Z,11.87
2018-12-16T06:26:54.406Z,11.10
2018-12-16T06:29:21.829Z,11.30
2018-12-16T06:31:49.239Z,11.13
2018-12-16T06:34:16.686Z,11.77
2018-12-16T06:36:44.092Z,11.07
2018-12-16T06:39:11.512Z,10.63
2018-12-16T06:41:38.913Z,11.10
2018-12-16T06:44:06.426Z,11.37
2018-12-16T06:46:33.875Z,10.53
2018-12-16T06:49:01.310Z,10.83
2018-12-16T06:51:28.733Z,10.17
2018-12-16T06:54:02.156Z,10.40
2018-12-16T06:56:25.618Z,10.83
2018-12-16T06:58:53.071Z,10.90
2018-12-16T07:01:20.602Z,10.93
2018-12-16T07:03:47.981Z,10.67
2018-12-16T07:06:15.624Z,10.47
2018-12-16T07:08:43.090Z,10.50
2018-12-16T07:11:10.513Z,10.77
2018-12-16T07:13:38.064Z,10.37
2018-12-16T07:16:05.485Z,10.13
2018-12-16T07:18:32.872Z,9.57
2018-12-16T07:21:00.254Z,10.10
2018-12-16T07:23:28.416Z,9.80
2018-12-16T07:25:55.849Z,10.00
2018-12-16T07:28:23.305Z,9.97
2018-12-16T07:30:50.848Z,9.90
2018-12-16T07:33:18.384Z,9.93
2018-12-16T07:35:45.784Z,10.67
2018-12-16T07:38:13.173Z,9.37
2018-12-16T07:40:40.581Z,9.77
2018-12-16T07:43:08.031Z,9.33
2018-12-16T07:45:35.673Z,10.37
2018-12-16T07:48:03.130Z,8.87
2018-12-16T07:50:30.617Z,8.73
2018-12-16T07:52:58.034Z,10.07
2018-12-16T07:55:25.488Z,8.37
2018-12-16T07:57:53.074Z,9.03
2018-12-16T08:00:20.501Z,8.23
2018-12-16T08:02:47.971Z,8.47
2018-12-16T08:05:15.417Z,9.33
2018-12-16T08:07:42.818Z,8.63
2018-12-16T08:10:10.186Z,8.30
2018-12-16T08:12:37.600Z,8.97
2018-12-16T08:15:05.822Z,8.13
2018-12-16T08:17:33.256Z,8.43
2018-12-16T08:20:00.677Z,8.33
2018-12-16T08:22:28.154Z,8.57
2018-12-16T08:24:55.550Z,9.10
2018-12-16T08:27:22.977Z,8.53
2018-12-16T08:29:50.387Z,8.70
2018-12-16T08:32:17.894Z,9.23
2018-12-16T08:34:45.286Z,8.60
2018-12-16T08:37:12.672Z,8.33
2018-12-16T08:39:40.096Z,8.50
2018-12-16T08:42:07.621Z,8.63
2018-12-16T08:44:35.087Z,11.67
2018-12-16T08:47:02.505Z,10.73
2018-12-16T08:49:29.893Z,8.73
2018-12-16T08:51:57.293Z,8.17
2018-12-16T08:54:30.070Z,8.37
2018-12-16T08:56:54.167Z,9.60
2018-12-16T08:59:21.648Z,8.93
2018-12-16T09:01:49.074Z,9.40
2018-12-16T09:04:16.923Z,9.17
2018-12-16T09:06:44.350Z,10.20
2018-12-16T09:09:12.112Z,9.93
2018-12-16T09:11:39.554Z,9.93
2018-12-16T09:14:06.975Z,10.70
2018-12-16T09:16:34.457Z,10.10
2018-12-16T09:19:01.848Z,9.10
2018-12-16T09:21:29.258Z,8.37
2018-12-16T09:23:56.732Z,8.30
2018-12-16T09:26:24.158Z,9.63
2018-12-16T09:28:51.547Z,8.57
2018-12-16T09:31:18.986Z,9.03
2018-12-16T09:33:46.372Z,8.90
2018-12-16T09:36:13.810Z,9.07
2018-12-16T09:38:41.209Z,8.77
2018-12-16T09:41:08.712Z,8.57
2018-12-16T09:43:36.129Z,8.90
2018-12-16T09:46:03.639Z,9.97
2018-12-16T09:48:31.047Z,8.50
2018-12-16T09:50:58.511Z,8.23
2018-12-16T09:53:25.967Z,9.10
2018-12-16T09:55:53.445Z,8.63
2018-12-16T09:58:20.967Z,9.30
2018-12-16T10:00:48.400Z,9.40
2018-12-16T10:03:15.857Z,8.40
2018-12-16T10:05:43.261Z,9.30
2018-12-16T10:08:10.729Z,9.43
2018-12-16T10:10:38.121Z,9.17
2018-12-16T10:13:05.670Z,10.43
2018-12-16T10:15:33.153Z,21.53
2018-12-16T10:18:00.649Z,8.70
2018-12-16T10:20:41.289Z,8.47
2018-12-16T10:23:09.379Z,10.13
2018-12-16T10:25:36.817Z,8.93
2018-12-16T10:28:04.217Z,9.03
2018-12-16T10:30:31.711Z,8.60
2018-12-16T10:32:59.112Z,8.67
2018-12-16T10:35:26.516Z,9.03
2018-12-16T10:37:53.956Z,8.43
2018-12-16T10:40:21.340Z,9.60
2018-12-16T10:42:48.840Z,10.40
2018-12-16T10:45:16.319Z,8.00
2018-12-16T10:47:43.730Z,9.60
2018-12-16T10:50:11.198Z,10.33
2018-12-16T10:52:38.582Z,10.40
2018-12-16T10:55:06.423Z,10.67
2018-12-16T10:57:33.878Z,10.00
2018-12-16T11:00:01.408Z,8.77
2018-12-16T11:02:28.845Z,10.67
2018-12-16T11:04:56.259Z,10.63
2018-12-16T11:07:23.700Z,10.00
2018-12-16T11:09:51.049Z,10.43
2018-12-16T11:12:18.722Z,10.20
2018-12-16T11:14:46.162Z,13.27
2018-12-16T11:17:13.602Z,11.97
2018-12-16T11:19:41.025Z,10.60
2018-12-16T11:22:08.440Z,10.47
2018-12-16T11:24:35.863Z,9.97
2018-12-16T11:27:03.328Z,9.97
2018-12-16T11:29:30.822Z,10.13
2018-12-16T11:31:58.240Z,11.27
2018-12-16T11:34:25.682Z,11.70
2018-12-16T11:36:53.144Z,10.60
2018-12-16T11:39:20.586Z,10.27
2018-12-16T11:41:47.994Z,11.57
2018-12-16T11:44:15.439Z,12.50
2018-12-16T11:46:42.875Z,11.77
2018-12-16T11:49:10.270Z,10.50
2018-12-16T11:51:38.020Z,13.20
2018-12-16T11:54:05.464Z,12.40
2018-12-16T11:56:32.916Z,11.60
2018-12-16T11:59:00.476Z,13.33
2018-12-16T12:01:27.837Z,12.10
2018-12-16T12:03:55.290Z,12.63
2018-12-16T12:06:22.813Z,13.03
2018-12-16T12:08:50.275Z,12.83
2018-12-16T12:11:17.649Z,12.77
2018-12-16T12:13:45.105Z,12.77
2018-12-16T12:16:12.561Z,10.53
2018-12-16T12:18:39.955Z,10.80
2018-12-16T12:21:07.377Z,10.37
2018-12-16T12:23:34.789Z,9.53
2018-12-16T12:26:02.197Z,10.57
2018-12-16T12:28:29.860Z,10.10
2018-12-16T12:30:57.521Z,9.83
2018-12-16T12:33:24.919Z,9.93
2018-12-16T12:35:52.412Z,10.47
2018-12-16T12:38:19.835Z,10.57
2018-12-16T12:40:47.251Z,9.67
2018-12-16T12:43:14.631Z,10.67
2018-12-16T12:45:42.041Z,9.80
2018-12-16T12:48:09.429Z,9.93
2018-12-16T12:50:36.853Z,11.50
2018-12-16T12:53:04.322Z,11.23
2018-12-16T12:55:31.855Z,10.00
2018-12-16T12:57:59.281Z,12.03
2018-12-16T13:00:26.776Z,11.07
2018-12-16T13:02:54.195Z,10.17
2018-12-16T13:05:21.611Z,12.53
2018-12-16T13:07:49.054Z,12.00
2018-12-16T13:10:16.524Z,11.73
2018-12-16T13:12:43.936Z,10.67
2018-12-16T13:15:11.530Z,12.30
2018-12-16T13:17:39.091Z,11.20
2018-12-16T13:20:06.765Z,11.80
2018-12-16T13:22:34.554Z,10.77
2018-12-16T13:25:13.380Z,11.60
2018-12-16T13:27:40.943Z,12.87
2018-12-16T13:30:08.546Z,11.77
2018-12-16T13:32:35.958Z,10.77
2018-12-16T13:35:03.791Z,11.23
2018-12-16T13:37:31.202Z,10.27
2018-12-16T13:39:58.636Z,9.67
2018-12-16T13:42:26.099Z,9.10
2018-12-16T13:44:53.544Z,9.33
2018-12-16T13:47:20.916Z,9.53
2018-12-16T13:49:48.358Z,9.97
2018-12-16T13:52:15.788Z,9.20
2018-12-16T13:54:43.191Z,10.90
2018-12-16T13:57:10.628Z,11.57
2018-12-16T13:59:38.097Z,10.67
2018-12-16T14:02:05.535Z,12.53
2018-12-16T14:04:32.940Z,12.50
2018-12-16T14:07:00.401Z,12.30
2018-12-16T14:09:27.844Z,12.20
2018-12-16T14:11:55.517Z,11.30
2018-12-16T14:14:22.983Z,11.40
2018-12-16T14:16:50.409Z,10.73
2018-12-16T14:19:17.869Z,10.77
2018-12-16T14:21:45.317Z,11.83
2018-12-16T14:24:12.731Z,11.87
2018-12-16T14:26:40.146Z,12.37
2018-12-16T14:29:07.670Z,13.77
2018-12-16T14:31:35.079Z,13.37
2018-12-16T14:34:02.486Z,13.17
2018-12-16T14:36:29.941Z,13.60
2018-12-16T14:38:57.481Z,14.07
2018-12-16T14:41:24.886Z,13.47
2018-12-16T14:43:52.315Z,14.23
2018-12-16T14:46:19.767Z,13.80
2018-12-16T14:48:47.193Z,17.03
2018-12-16T14:51:14.610Z,14.33
2018-12-16T14:53:42.020Z,13.77
2018-12-16T14:56:09.454Z,13.27
2018-12-16T14:58:37.001Z,16.30
2018-12-16T15:01:04.418Z,14.80
2018-12-16T15:03:31.818Z,19.87
2018-12-16T15:05:59.246Z,23.80
2018-12-16T15:08:26.786Z,17.13
2018-12-16T15:10:54.181Z,16.80
2018-12-16T15:13:21.737Z,16.73
2018-12-16T15:15:49.246Z,15.30
2018-12-16T15:18:16.637Z,14.80
2018-12-16T15:20:44.028Z,14.50
2018-12-16T15:23:11.441Z,16.30
2018-12-16T15:25:38.884Z,17.70
2018-12-16T15:28:06.274Z,15.17
2018-12-16T15:30:33.677Z,15.20
2018-12-16T15:33:01.079Z,15.33
2018-12-16T15:35:28.627Z,16.33
2018-12-16T15:37:56.037Z,29.37
2018-12-16T15:40:23.447Z,25.03
2018-12-16T15:42:50.942Z,20.73
2018-12-16T15:45:18.342Z,27.73
2018-12-16T15:47:45.833Z,26.87
2018-12-16T15:50:13.260Z,20.00
2018-12-16T15:52:40.677Z,19.97
2018-12-16T15:55:09.728Z,14.30
2018-12-16T15:57:37.129Z,13.80
2018-12-16T16:00:05.013Z,13.13
2018-12-16T16:02:32.395Z,14.53
2018-12-16T16:04:59.777Z,13.60
2018-12-16T16:07:27.261Z,12.77
2018-12-16T16:09:54.710Z,13.77
2018-12-16T16:12:22.492Z,12.97
2018-12-16T16:14:49.926Z,14.30
2018-12-16T16:17:17.364Z,17.13
2018-12-16T16:19:44.790Z,16.97
2018-12-16T16:22:12.176Z,17.70
2018-12-16T16:24:39.544Z,17.37
2018-12-16T16:27:07.025Z,16.70
2018-12-16T16:29:34.457Z,15.70
2018-12-16T16:32:01.856Z,14.90
2018-12-16T16:34:29.273Z,14.83
2018-12-16T16:36:56.758Z,14.60
2018-12-16T16:39:24.164Z,15.93
2018-12-16T16:41:51.586Z,16.40
2018-12-16T16:44:26.140Z,16.63
2018-12-16T16:47:04.331Z,16.67
2018-12-16T16:49:32.189Z,15.73
2018-12-16T16:51:59.642Z,15.47
2018-12-16T16:54:27.067Z,14.90
2018-12-16T16:56:54.497Z,15.57
2018-12-16T16:59:22.056Z,15.87
2018-12-16T17:01:49.627Z,15.70
2018-12-16T17:04:17.047Z,16.13
2018-12-16T17:06:44.481Z,15.83
2018-12-16T17:09:12.029Z,17.50
2018-12-16T17:11:39.465Z,19.17
2018-12-16T17:14:07.056Z,17.33
2018-12-16T17:16:34.460Z,39.37
2018-12-16T17:19:02.216Z,20.47
2018-12-16T17:21:30.229Z,19.87
2018-12-16T17:23:57.670Z,21.43
2018-12-16T17:26:30.137Z,19.57
2018-12-16T17:28:54.638Z,18.83
2018-12-16T17:31:22.152Z,20.93
2018-12-16T17:33:49.553Z,18.07
2018-12-16T17:36:17.085Z,17.30
2018-12-16T17:38:44.479Z,17.30
2018-12-16T17:41:11.925Z,16.97
2018-12-16T17:43:39.328Z,16.53
2018-12-16T17:46:06.742Z,15.80
2018-12-16T17:48:34.282Z,35.73
2018-12-16T17:51:01.680Z,17.13
2018-12-16T17:53:29.128Z,15.87
2018-12-16T17:55:56.929Z,16.27
2018-12-16T17:58:24.951Z,17.20
2018-12-16T18:00:52.485Z,16.50
2018-12-16T18:03:19.883Z,16.83
2018-12-16T18:05:47.318Z,19.93
2018-12-16T18:08:14.736Z,18.07
2018-12-16T18:10:42.197Z,19.10
2018-12-16T18:13:09.574Z,20.23
2018-12-16T18:15:37.075Z,17.27
2018-12-16T18:18:04.535Z,18.03
2018-12-16T18:20:32.012Z,16.97
2018-12-16T18:22:59.599Z,20.97
2018-12-16T18:25:27.050Z,21.50
2018-12-16T18:27:54.524Z,22.63
2018-12-16T18:30:21.951Z,19.30
2018-12-16T18:32:49.405Z,19.53
2018-12-16T18:35:16.866Z,18.57
2018-12-16T18:37:44.516Z,17.00
2018-12-16T18:40:11.966Z,16.63
2018-12-16T18:42:39.389Z,20.23
2018-12-16T18:45:07.057Z,22.87
2018-12-16T18:47:34.453Z,20.47
2018-12-16T18:50:03.949Z,18.90
2018-12-16T18:52:31.401Z,20.50
2018-12-16T18:54:58.794Z,20.23
2018-12-16T18:57:26.248Z,16.77
2018-12-16T18:59:53.672Z,16.83
2018-12-16T19:02:21.078Z,20.13
2018-12-16T19:04:48.484Z,18.30
2018-12-16T19:07:15.882Z,17.97
2018-12-16T19:09:43.322Z,16.13
2018-12-16T19:12:10.752Z,18.57
2018-12-16T19:14:38.625Z,17.20
2018-12-16T19:17:06.038Z,19.10
2018-12-16T19:19:33.582Z,17.67
2018-12-16T19:22:01.030Z,18.57
2018-12-16T19:24:28.410Z,16.83
2018-12-16T19:26:58.447Z,16.57
2018-12-16T19:29:25.293Z,16.03
2018-12-16T19:31:52.714Z,16.53
2018-12-16T19:34:20.152Z,16.37
2018-12-16T19:36:47.549Z,16.33
2018-12-16T19:39:15.027Z,16.77
2018-12-16T19:41:42.435Z,17.70
2018-12-16T19:44:09.964Z,16.73
2018-12-16T19:46:37.422Z,33.00
2018-12-16T19:49:04.819Z,24.87
2018-12-16T19:51:32.345Z,28.87
2018-12-16T19:53:59.806Z,29.40
2018-12-16T19:56:27.219Z,28.10
2018-12-16T19:58:54.899Z,23.17
2018-12-16T20:01:22.322Z,21.50
2018-12-16T20:03:55.453Z,19.20
2018-12-16T20:06:28.645Z,19.67
2018-12-16T20:08:56.079Z,24.33
2018-12-16T20:11:23.625Z,42.60
2018-12-16T20:13:51.067Z,21.77
2018-12-16T20:16:18.505Z,19.70
2018-12-16T20:18:45.886Z,18.07
2018-12-16T20:21:13.347Z,17.03
2018-12-16T20:23:40.791Z,16.93
2018-12-16T20:26:08.324Z,17.90
2018-12-16T20:28:35.744Z,16.33
2018-12-16T20:31:03.261Z,15.60
2018-12-16T20:33:30.705Z,16.67
2018-12-16T20:35:58.240Z,16.20
2018-12-16T20:38:25.851Z,16.43
2018-12-16T20:40:53.558Z,16.67
2018-12-16T20:43:20.956Z,15.87
2018-12-16T20:45:48.592Z,16.67
2018-12-16T20:48:16.013Z,15.93
2018-12-16T20:50:43.440Z,15.13
2018-12-16T20:53:10.891Z,14.53
2018-12-16T20:55:38.301Z,16.60
2018-12-16T20:58:05.758Z,14.40
2018-12-16T21:00:33.167Z,13.00
2018-12-16T21:03:00.703Z,14.70
2018-12-16T21:05:28.146Z,14.93
2018-12-16T21:07:55.570Z,13.80
2018-12-16T21:10:23.021Z,15.90
2018-12-16T21:12:56.169Z,15.30
2018-12-16T21:15:29.287Z,17.30
2018-12-16T21:18:02.451Z,20.93
2018-12-16T21:20:29.875Z,28.93
2018-12-16T21:22:57.317Z,33.87
2018-12-16T21:25:24.776Z,18.47
2018-12-16T21:27:52.273Z,17.30
2018-12-16T21:30:19.723Z,18.53
2018-12-16T21:32:47.231Z,17.77
2018-12-16T21:35:14.717Z,17.70
2018-12-16T21:37:42.153Z,15.83
2018-12-16T21:40:09.688Z,15.77
2018-12-16T21:42:37.225Z,15.43
2018-12-16T21:45:05.221Z,14.67
2018-12-16T21:47:32.735Z,21.63
2018-12-16T21:50:00.198Z,26.80
2018-12-16T21:52:27.709Z,23.40
2018-12-16T21:54:55.168Z,28.77
2018-12-16T21:57:22.591Z,19.10
2018-12-16T21:59:50.187Z,15.97
2018-12-16T22:02:17.657Z,14.80
2018-12-16T22:04:45.112Z,16.53
2018-12-16T22:07:12.581Z,16.60
2018-12-16T22:09:39.978Z,16.97
2018-12-16T22:12:07.915Z,16.50
2018-12-16T22:14:36.028Z,17.77
2018-12-16T22:17:03.717Z,18.80
2018-12-16T22:19:31.137Z,18.77
2018-12-16T22:21:58.578Z,18.73
2018-12-16T22:24:26.023Z,18.60
2018-12-16T22:26:53.474Z,19.03
2018-12-16T22:29:20.891Z,18.43
2018-12-16T22:31:48.454Z,18.07
2018-12-16T22:34:15.895Z,17.33
2018-12-16T22:36:43.295Z,16.13
2018-12-16T22:39:10.694Z,17.00
2018-12-16T22:41:38.107Z,16.07
2018-12-16T22:44:05.612Z,14.63
2018-12-16T22:46:33.149Z,17.53
2018-12-16T22:49:00.541Z,16.73
2018-12-16T22:51:27.990Z,16.80
2018-12-16T22:53:55.353Z,17.73
2018-12-16T22:56:22.848Z,15.33
2018-12-16T22:58:54.313Z,14.87
2018-12-16T23:01:20.010Z,14.43
2018-12-16T23:03:47.410Z,13.90
2018-12-16T23:06:14.829Z,12.20
2018-12-16T23:08:42.226Z,12.00
2018-12-16T23:11:09.602Z,12.47
2018-12-16T23:13:37.023Z,12.60
2018-12-16T23:16:04.454Z,11.43
2018-12-16T23:18:31.866Z,12.60
2018-12-16T23:20:59.321Z,11.10
2018-12-16T23:23:26.719Z,12.20
2018-12-16T23:25:54.157Z,11.90
2018-12-16T23:28:21.865Z,10.53
2018-12-16T23:30:49.263Z,12.33
2018-12-16T23:33:16.749Z,11.07
2018-12-16T23:35:44.124Z,10.03
2018-12-16T23:38:11.545Z,9.93
2018-12-16T23:40:38.940Z,9.87
2018-12-16T23:43:06.312Z,9.37
2018-12-16T23:45:33.865Z,8.87
2018-12-16T23:48:01.257Z,10.00
2018-12-16T23:50:28.641Z,9.17
2018-12-16T23:52:56.050Z,8.93
2018-12-16T23:55:23.456Z,9.43
2018-12-16T23:57:50.857Z,9.00
